Amelia, West Virginia
Current Conditions -  °F | °C
As of 4:54 AM on Sunday 26 Oct 2014 (Local Time) from KCRW Reporting Station
Few Clouds Few Clouds  
Wind Chill: 55°   Ceiling: Unl
Heat Index: 55°   Visibility: 10mi
Dew Point: 52°   Wind: 3mph
Humidity: 89%   Direction: NA
Pressure: 29.9"   Gusts: NA
Location:  38.2755°N, 81.3011°W
Report Text: KCRW 260854Z VRB03KT 10SM FEW001 13/11 A2990 RMK AO2 SLP120 T01280111 53005 $
Loading
Personal Weather Stations






























Interactive Weather Map
Tropical Storm Tracking
New forecast layout! Learn more

10-Day Weather Forecast

Advertisements
Track Severe Weather on mobile